createdAt,value
2022-12-19T00:00:19.844Z,0.00
2022-12-19T00:01:19.268Z,0.00
2022-12-19T00:02:18.924Z,0.00
2022-12-19T00:03:18.963Z,0.00
2022-12-19T00:04:18.810Z,0.00
2022-12-19T00:05:18.825Z,0.00
2022-12-19T00:06:18.886Z,0.00
2022-12-19T00:07:18.819Z,0.00
2022-12-19T00:08:18.802Z,0.00
2022-12-19T00:09:18.803Z,0.00
2022-12-19T00:10:18.793Z,0.00
2022-12-19T00:11:18.789Z,0.00
2022-12-19T00:12:19.396Z,0.00
2022-12-19T00:13:18.782Z,0.00
2022-12-19T00:14:18.774Z,0.00
2022-12-19T00:15:18.901Z,0.00
2022-12-19T00:16:19.030Z,0.00
2022-12-19T00:17:18.755Z,0.00
2022-12-19T00:18:18.748Z,0.00
2022-12-19T00:19:18.754Z,0.00
2022-12-19T00:20:18.797Z,0.00
2022-12-19T00:21:18.744Z,0.00
2022-12-19T00:22:18.729Z,0.00
2022-12-19T00:23:18.721Z,0.00
2022-12-19T00:24:21.492Z,0.00
2022-12-19T00:25:18.723Z,0.00
2022-12-19T00:26:18.713Z,0.00
2022-12-19T00:27:18.713Z,0.00
2022-12-19T00:28:18.695Z,0.00
2022-12-19T00:29:18.697Z,0.00
2022-12-19T00:30:18.687Z,0.00
2022-12-19T00:31:18.865Z,0.00
2022-12-19T00:32:18.678Z,0.00
2022-12-19T00:33:18.677Z,0.00
2022-12-19T00:34:18.926Z,0.00
2022-12-19T00:35:18.667Z,0.00
2022-12-19T00:36:22.423Z,0.00
2022-12-19T00:37:18.640Z,0.00
2022-12-19T00:38:18.641Z,0.00
2022-12-19T00:39:18.652Z,0.00
2022-12-19T00:40:18.614Z,0.00
2022-12-19T00:41:18.629Z,0.00
2022-12-19T00:42:18.604Z,0.00
2022-12-19T00:43:18.623Z,0.00
2022-12-19T00:44:18.633Z,0.00
2022-12-19T00:45:18.633Z,0.00
2022-12-19T00:46:18.694Z,0.00
2022-12-19T00:47:18.702Z,0.00
2022-12-19T00:48:18.572Z,0.00
2022-12-19T00:49:18.599Z,0.00
2022-12-19T00:50:18.578Z,0.00
2022-12-19T00:51:25.921Z,0.00
2022-12-19T00:52:18.542Z,0.00
2022-12-19T00:53:18.563Z,0.00
2022-12-19T00:54:18.556Z,0.00
2022-12-19T00:55:19.428Z,0.00
2022-12-19T00:56:18.555Z,0.00
2022-12-19T00:57:18.530Z,0.00
2022-12-19T00:58:18.556Z,0.00
2022-12-19T00:59:18.919Z,0.00
2022-12-19T01:00:18.509Z,0.00
2022-12-19T01:01:18.635Z,0.00
2022-12-19T01:02:18.578Z,0.00
2022-12-19T01:03:18.682Z,0.00
2022-12-19T01:04:28.169Z,0.00
2022-12-19T01:05:19.500Z,0.00
2022-12-19T01:06:18.482Z,0.00
2022-12-19T01:07:18.488Z,0.00
2022-12-19T01:08:18.502Z,0.00
2022-12-19T01:09:18.464Z,0.00
2022-12-19T01:10:18.449Z,0.00
2022-12-19T01:11:18.462Z,0.00
2022-12-19T01:12:18.438Z,0.00
2022-12-19T01:13:18.450Z,0.00
2022-12-19T01:14:22.806Z,0.00
2022-12-19T01:15:18.423Z,0.00
2022-12-19T01:16:18.460Z,0.00
2022-12-19T01:17:18.421Z,0.00
2022-12-19T01:18:18.404Z,0.00
2022-12-19T01:19:18.543Z,0.00
2022-12-19T01:20:21.632Z,0.00
2022-12-19T01:21:19.691Z,0.00
2022-12-19T01:22:18.384Z,0.00
2022-12-19T01:23:18.400Z,0.00
2022-12-19T01:24:41.158Z,0.00
2022-12-19T01:25:19.374Z,0.00
2022-12-19T01:26:18.380Z,0.00
2022-12-19T01:27:18.434Z,0.00
2022-12-19T01:28:18.365Z,0.00
2022-12-19T01:29:18.341Z,0.00
2022-12-19T01:30:18.374Z,0.00
2022-12-19T01:31:18.410Z,0.00
2022-12-19T01:32:18.382Z,0.00
2022-12-19T01:33:18.339Z,0.00
2022-12-19T01:34:18.329Z,0.00
2022-12-19T01:35:21.601Z,0.00
2022-12-19T01:36:18.313Z,0.00
2022-12-19T01:37:18.316Z,0.00
2022-12-19T01:38:33.133Z,0.00
2022-12-19T01:39:18.283Z,0.00
2022-12-19T01:40:18.310Z,0.00
2022-12-19T01:41:18.372Z,0.00
2022-12-19T01:42:23.635Z,0.00
2022-12-19T01:43:19.277Z,0.00
2022-12-19T01:44:18.274Z,0.00
2022-12-19T01:45:18.254Z,0.00
2022-12-19T01:46:18.298Z,0.00
2022-12-19T01:47:18.236Z,0.00
2022-12-19T01:48:18.257Z,0.00
2022-12-19T01:49:18.246Z,0.00
2022-12-19T01:50:18.233Z,0.00
2022-12-19T01:51:18.342Z,0.00
2022-12-19T01:52:23.683Z,0.00
2022-12-19T01:53:19.213Z,0.00
2022-12-19T01:54:18.196Z,0.00
2022-12-19T01:55:18.195Z,0.00
2022-12-19T01:56:18.164Z,0.00
2022-12-19T01:57:18.158Z,0.00
2022-12-19T01:58:18.166Z,0.00
2022-12-19T01:59:18.131Z,0.00
2022-12-19T02:00:18.146Z,0.00
2022-12-19T02:01:18.440Z,0.00
2022-12-19T02:02:18.212Z,0.00
2022-12-19T02:03:18.167Z,0.00
2022-12-19T02:04:18.108Z,0.00
2022-12-19T02:05:18.101Z,0.00
2022-12-19T02:06:18.112Z,0.00
2022-12-19T02:07:18.234Z,0.00
2022-12-19T02:08:18.097Z,0.00
2022-12-19T02:09:18.079Z,0.00
2022-12-19T02:10:18.103Z,0.00
2022-12-19T02:11:18.074Z,0.00
2022-12-19T02:12:18.076Z,0.00
2022-12-19T02:13:18.073Z,0.00
2022-12-19T02:14:18.055Z,0.00
2022-12-19T02:15:18.086Z,0.00
2022-12-19T02:16:18.100Z,0.00
2022-12-19T02:17:18.038Z,0.00
2022-12-19T02:18:18.047Z,0.00
2022-12-19T02:19:18.014Z,0.00
2022-12-19T02:20:18.040Z,0.00
2022-12-19T02:21:18.019Z,0.00
2022-12-19T02:22:19.165Z,0.00
2022-12-19T02:23:18.119Z,0.00
2022-12-19T02:24:18.013Z,0.00
2022-12-19T02:25:18.004Z,0.00
2022-12-19T02:26:18.005Z,0.00
2022-12-19T02:27:17.997Z,0.00
2022-12-19T02:28:17.981Z,0.00
2022-12-19T02:29:17.970Z,0.00
2022-12-19T02:30:18.223Z,0.00
2022-12-19T02:31:18.064Z,0.00
2022-12-19T02:32:17.983Z,0.00
2022-12-19T02:33:18.097Z,0.00
2022-12-19T02:34:17.951Z,0.00
2022-12-19T02:35:40.638Z,0.00
2022-12-19T02:36:17.932Z,0.00
2022-12-19T02:37:18.942Z,0.00
2022-12-19T02:38:17.925Z,0.00
2022-12-19T02:39:18.052Z,0.00
2022-12-19T02:40:17.940Z,0.00
2022-12-19T02:41:17.909Z,0.00
2022-12-19T02:42:17.902Z,0.00
2022-12-19T02:43:17.900Z,0.00
2022-12-19T02:44:17.884Z,0.00
2022-12-19T02:45:22.772Z,0.00
2022-12-19T02:46:18.934Z,0.00
2022-12-19T02:47:17.886Z,0.00
2022-12-19T02:48:19.462Z,0.00
2022-12-19T02:49:17.868Z,0.00
2022-12-19T02:50:17.887Z,0.00
2022-12-19T02:51:17.861Z,0.00
2022-12-19T02:52:17.850Z,0.00
2022-12-19T02:53:22.397Z,0.00
2022-12-19T02:54:18.880Z,0.00
2022-12-19T02:55:17.974Z,0.00
2022-12-19T02:56:17.843Z,0.00
2022-12-19T02:57:17.838Z,0.00
2022-12-19T02:58:17.825Z,0.00
2022-12-19T02:59:17.828Z,0.00
2022-12-19T03:00:17.826Z,0.00
2022-12-19T03:01:17.966Z,0.00
2022-12-19T03:02:17.983Z,0.00
2022-12-19T03:03:18.047Z,0.00
2022-12-19T03:04:17.792Z,0.00
2022-12-19T03:05:17.787Z,0.00
2022-12-19T03:06:17.770Z,0.00
2022-12-19T03:07:17.792Z,0.00
2022-12-19T03:08:17.805Z,0.00
2022-12-19T03:09:17.764Z,0.00
2022-12-19T03:10:18.173Z,0.00
2022-12-19T03:11:17.884Z,0.00
2022-12-19T03:12:17.950Z,0.00
2022-12-19T03:13:17.747Z,0.00
2022-12-19T03:14:17.737Z,0.00
2022-12-19T03:15:17.731Z,0.00
2022-12-19T03:16:17.780Z,0.00
2022-12-19T03:17:17.937Z,0.00
2022-12-19T03:18:17.714Z,0.00
2022-12-19T03:19:17.726Z,0.00
2022-12-19T03:20:17.718Z,0.00
2022-12-19T03:21:17.702Z,0.00
2022-12-19T03:22:17.719Z,0.00
2022-12-19T03:23:17.727Z,0.00
2022-12-19T03:24:17.675Z,0.00
2022-12-19T03:25:17.691Z,0.00
2022-12-19T03:26:17.680Z,0.00
2022-12-19T03:27:17.797Z,0.00
2022-12-19T03:28:17.662Z,0.00
2022-12-19T03:29:17.685Z,0.00
2022-12-19T03:30:17.636Z,0.00
2022-12-19T03:31:17.676Z,0.00
2022-12-19T03:32:17.643Z,0.00
2022-12-19T03:33:17.632Z,0.00
2022-12-19T03:34:17.652Z,0.00
2022-12-19T03:35:17.628Z,0.00
2022-12-19T03:36:17.619Z,0.00
2022-12-19T03:37:17.624Z,0.00
2022-12-19T03:38:17.607Z,0.00
2022-12-19T03:39:17.639Z,0.00
2022-12-19T03:40:17.597Z,0.00
2022-12-19T03:41:17.599Z,0.00
2022-12-19T03:42:17.603Z,0.00
2022-12-19T03:43:17.705Z,0.00
2022-12-19T03:44:17.594Z,0.00
2022-12-19T03:45:17.563Z,0.00
2022-12-19T03:46:17.625Z,0.00
2022-12-19T03:47:17.551Z,0.00
2022-12-19T03:48:17.554Z,0.00
2022-12-19T03:49:17.579Z,0.00
2022-12-19T03:50:17.542Z,0.00
2022-12-19T03:51:17.592Z,0.00
2022-12-19T03:52:17.527Z,0.00
2022-12-19T03:53:17.539Z,0.00
2022-12-19T03:54:17.518Z,0.00
2022-12-19T03:55:17.587Z,0.00
2022-12-19T03:56:17.520Z,0.00
2022-12-19T03:57:17.519Z,0.00
2022-12-19T03:58:17.491Z,0.00
2022-12-19T03:59:17.616Z,0.00
2022-12-19T04:00:17.518Z,0.00
2022-12-19T04:01:17.714Z,0.00
2022-12-19T04:02:17.654Z,0.00
2022-12-19T04:03:17.550Z,0.00
2022-12-19T04:04:17.467Z,0.00
2022-12-19T04:05:17.471Z,0.00
2022-12-19T04:06:17.447Z,0.00
2022-12-19T04:07:17.469Z,0.00
2022-12-19T04:08:17.442Z,0.00
2022-12-19T04:09:22.309Z,0.00
2022-12-19T04:10:18.435Z,0.00
2022-12-19T04:11:17.437Z,0.00
2022-12-19T04:12:17.896Z,0.00
2022-12-19T04:13:17.416Z,0.00
2022-12-19T04:14:17.420Z,0.00
2022-12-19T04:15:17.454Z,0.00
2022-12-19T04:16:17.459Z,0.00
2022-12-19T04:17:17.422Z,0.00
2022-12-19T04:18:17.377Z,0.00
2022-12-19T04:19:17.384Z,0.00
2022-12-19T04:20:17.657Z,0.00
2022-12-19T04:21:17.364Z,0.00
2022-12-19T04:22:17.366Z,0.00
2022-12-19T04:23:17.381Z,0.00
2022-12-19T04:24:17.339Z,0.00
2022-12-19T04:25:17.458Z,0.00
2022-12-19T04:26:17.384Z,0.00
2022-12-19T04:27:17.374Z,0.00
2022-12-19T04:28:17.332Z,0.00
2022-12-19T04:29:17.360Z,0.00
2022-12-19T04:30:17.371Z,0.00
2022-12-19T04:31:17.505Z,0.00
2022-12-19T04:32:17.327Z,0.00
2022-12-19T04:33:17.303Z,0.00
2022-12-19T04:34:17.314Z,0.00
2022-12-19T04:35:17.314Z,0.00
2022-12-19T04:36:17.273Z,0.00
2022-12-19T04:37:17.305Z,0.00
2022-12-19T04:38:17.266Z,0.00
2022-12-19T04:39:17.277Z,0.00
2022-12-19T04:40:17.267Z,0.00
2022-12-19T04:41:17.260Z,0.00
2022-12-19T04:42:17.259Z,0.00
2022-12-19T04:43:17.258Z,0.00
2022-12-19T04:44:17.226Z,0.00
2022-12-19T04:45:17.259Z,0.00
2022-12-19T04:46:17.276Z,0.00
2022-12-19T04:47:17.383Z,0.00
2022-12-19T04:48:17.217Z,0.00
2022-12-19T04:49:17.208Z,0.00
2022-12-19T04:50:17.222Z,0.00
2022-12-19T04:51:17.215Z,0.00
2022-12-19T04:52:17.184Z,0.00
2022-12-19T04:53:17.208Z,0.00
2022-12-19T04:54:17.191Z,0.00
2022-12-19T04:55:17.835Z,0.00
2022-12-19T04:56:17.181Z,0.00
2022-12-19T04:57:17.160Z,0.00
2022-12-19T04:58:21.708Z,0.00
2022-12-19T04:59:17.169Z,0.00
2022-12-19T05:00:17.145Z,0.00
2022-12-19T05:01:17.286Z,0.00
2022-12-19T05:02:17.284Z,0.00
2022-12-19T05:03:17.326Z,0.00
2022-12-19T05:04:17.127Z,0.00
2022-12-19T05:05:17.134Z,0.00
2022-12-19T05:06:17.106Z,0.00
2022-12-19T05:07:17.230Z,0.00
2022-12-19T05:08:17.100Z,0.00
2022-12-19T05:09:17.098Z,0.00
2022-12-19T05:10:17.093Z,0.00
2022-12-19T05:11:19.705Z,0.00
2022-12-19T05:12:17.166Z,0.00
2022-12-19T05:13:17.093Z,0.00
2022-12-19T05:14:17.064Z,0.00
2022-12-19T05:15:17.096Z,0.00
2022-12-19T05:16:17.124Z,0.00
2022-12-19T05:17:17.088Z,0.00
2022-12-19T05:18:17.038Z,0.00
2022-12-19T05:19:17.157Z,0.00
2022-12-19T05:20:17.030Z,0.00
2022-12-19T05:21:17.018Z,0.00
2022-12-19T05:22:17.030Z,0.00
2022-12-19T05:23:17.443Z,0.00
2022-12-19T05:24:16.992Z,0.00
2022-12-19T05:25:17.027Z,0.00
2022-12-19T05:26:17.011Z,0.00
2022-12-19T05:27:17.001Z,0.00
2022-12-19T05:28:16.987Z,0.00
2022-12-19T05:29:16.963Z,0.00
2022-12-19T05:30:16.970Z,0.00
2022-12-19T05:31:16.996Z,0.00
2022-12-19T05:32:16.956Z,0.00
2022-12-19T05:33:17.015Z,0.00
2022-12-19T05:34:16.941Z,0.00
2022-12-19T05:35:16.976Z,0.00
2022-12-19T05:36:16.917Z,0.00
2022-12-19T05:37:31.649Z,0.00
2022-12-19T05:38:16.915Z,0.00
2022-12-19T05:39:16.912Z,0.00
2022-12-19T05:40:16.902Z,0.00
2022-12-19T05:41:16.895Z,0.00
2022-12-19T05:42:16.893Z,0.00
2022-12-19T05:43:16.911Z,0.00
2022-12-19T05:44:16.880Z,0.00
2022-12-19T05:45:16.900Z,0.00
2022-12-19T05:46:16.899Z,0.00
2022-12-19T05:47:16.866Z,0.00
2022-12-19T05:48:16.858Z,0.00
2022-12-19T05:49:16.851Z,0.00
2022-12-19T05:50:16.859Z,0.00
2022-12-19T05:51:57.312Z,0.00
2022-12-19T05:52:18.652Z,0.00
2022-12-19T05:53:21.860Z,0.00
2022-12-19T05:54:17.824Z,0.00
2022-12-19T05:55:16.911Z,0.00
2022-12-19T05:56:16.802Z,0.00
2022-12-19T05:57:16.821Z,0.00
2022-12-19T05:58:16.810Z,0.00
2022-12-19T05:59:16.777Z,0.00
2022-12-19T06:01:42.428Z,0.00
2022-12-19T06:02:42.369Z,0.00
2022-12-19T06:03:42.234Z,0.00
2022-12-19T06:04:42.177Z,0.00
2022-12-19T06:05:42.198Z,0.00
2022-12-19T06:06:42.155Z,0.00
2022-12-19T06:07:42.295Z,0.00
2022-12-19T06:08:42.152Z,0.00
2022-12-19T06:09:42.172Z,0.00
2022-12-19T06:10:42.182Z,0.00
2022-12-19T06:11:42.130Z,0.00
2022-12-19T06:12:42.136Z,0.00
2022-12-19T06:13:42.134Z,0.00
2022-12-19T06:14:42.124Z,0.00
2022-12-19T06:15:42.120Z,0.00
2022-12-19T06:16:42.167Z,0.00
2022-12-19T06:17:42.138Z,0.00
2022-12-19T06:18:44.846Z,0.00
2022-12-19T06:19:42.106Z,0.00
2022-12-19T06:20:42.062Z,0.00
2022-12-19T06:21:47.933Z,0.00
2022-12-19T06:22:43.061Z,0.00
2022-12-19T06:23:42.190Z,0.00
2022-12-19T06:24:42.065Z,0.00
2022-12-19T06:25:42.060Z,0.00
2022-12-19T06:26:42.046Z,0.00
2022-12-19T06:27:42.087Z,0.00
2022-12-19T06:28:42.014Z,0.00
2022-12-19T06:29:42.021Z,0.00
2022-12-19T06:30:42.021Z,0.00
2022-12-19T06:31:42.051Z,0.00
2022-12-19T06:32:42.002Z,0.00
2022-12-19T06:33:42.046Z,0.00
2022-12-19T06:35:42.979Z,0.00
2022-12-19T06:36:41.976Z,0.00
2022-12-19T06:37:41.976Z,0.00
2022-12-19T06:38:41.984Z,0.00
2022-12-19T06:39:42.339Z,0.00
2022-12-19T06:40:41.944Z,0.00
2022-12-19T06:41:41.956Z,0.00
2022-12-19T06:42:41.967Z,0.00
2022-12-19T06:43:41.935Z,0.00
2022-12-19T06:44:41.936Z,0.00
2022-12-19T06:45:41.956Z,0.00
2022-12-19T06:46:41.954Z,0.00
2022-12-19T06:47:41.921Z,0.00
2022-12-19T06:48:42.811Z,0.00
2022-12-19T06:49:41.910Z,0.00
2022-12-19T06:50:41.909Z,0.00
2022-12-19T06:51:41.890Z,0.00
2022-12-19T06:52:48.951Z,0.00
2022-12-19T06:53:41.854Z,0.00
2022-12-19T06:56:22.921Z,0.00
2022-12-19T06:57:22.796Z,0.00
2022-12-19T06:58:24.333Z,4.00
2022-12-19T06:59:22.755Z,4.00
2022-12-19T07:00:22.754Z,4.00
2022-12-19T07:01:22.905Z,4.00
2022-12-19T07:02:22.886Z,4.00
2022-12-19T07:03:22.764Z,4.00
2022-12-19T07:04:22.705Z,8.00
2022-12-19T07:05:22.726Z,8.00
2022-12-19T07:06:22.997Z,8.00
2022-12-19T07:07:22.711Z,8.00
2022-12-19T07:08:22.759Z,8.00
2022-12-19T07:09:50.440Z,12.00
2022-12-19T07:10:22.733Z,8.00
2022-12-19T07:11:22.680Z,8.00
2022-12-19T07:12:22.795Z,8.00
2022-12-19T07:13:22.656Z,12.00
2022-12-19T07:14:22.657Z,16.00
2022-12-19T07:15:22.631Z,16.00
2022-12-19T07:16:22.669Z,20.00
2022-12-19T07:17:22.632Z,24.00
2022-12-19T07:18:22.618Z,28.00
2022-12-19T07:19:22.637Z,24.00
2022-12-19T07:20:22.623Z,28.00
2022-12-19T07:21:22.932Z,28.00
2022-12-19T07:22:22.620Z,36.00
2022-12-19T07:23:22.576Z,40.00
2022-12-19T07:24:22.774Z,40.00
2022-12-19T07:25:22.578Z,44.00
2022-12-19T07:26:22.579Z,44.00
2022-12-19T07:27:22.550Z,44.00
2022-12-19T07:28:22.686Z,44.00
2022-12-19T07:29:22.776Z,44.00
2022-12-19T07:30:22.549Z,48.00
2022-12-19T07:31:22.824Z,52.00
2022-12-19T07:32:22.546Z,56.00
2022-12-19T07:33:22.530Z,60.00
2022-12-19T07:34:22.538Z,68.00
2022-12-19T07:35:22.496Z,80.00
2022-12-19T07:36:22.510Z,88.00
2022-12-19T07:37:22.481Z,96.00
2022-12-19T07:38:22.499Z,92.00
2022-12-19T07:39:22.488Z,104.00
2022-12-19T07:40:22.472Z,104.00
2022-12-19T07:41:22.464Z,120.00
2022-12-19T07:42:22.482Z,116.00
2022-12-19T07:43:22.542Z,120.00
2022-12-19T07:44:22.622Z,124.00
2022-12-19T07:45:22.429Z,120.00
2022-12-19T07:46:22.521Z,128.00
2022-12-19T07:47:22.426Z,136.00
2022-12-19T07:48:22.417Z,144.00
2022-12-19T07:49:23.043Z,144.00
2022-12-19T07:50:22.416Z,152.00
2022-12-19T07:51:22.385Z,152.00
2022-12-19T07:52:22.400Z,160.00
2022-12-19T07:53:22.380Z,172.00
2022-12-19T07:54:22.414Z,184.00
2022-12-19T07:55:22.373Z,196.00
2022-12-19T07:56:22.484Z,204.00
2022-12-19T07:57:22.353Z,212.00
2022-12-19T07:58:22.354Z,224.00
2022-12-19T07:59:28.595Z,236.00
2022-12-19T08:00:22.475Z,240.00
2022-12-19T08:01:22.613Z,248.00
2022-12-19T08:02:22.482Z,248.00
2022-12-19T08:03:22.465Z,260.00
2022-12-19T08:04:22.349Z,268.00
2022-12-19T08:05:22.370Z,268.00
2022-12-19T08:06:22.318Z,260.00
2022-12-19T08:07:22.393Z,260.00
2022-12-19T08:08:22.800Z,260.00
2022-12-19T08:09:22.309Z,268.00
2022-12-19T08:10:22.346Z,284.00
2022-12-19T08:11:22.276Z,296.00
2022-12-19T08:12:22.272Z,292.00
2022-12-19T08:13:22.278Z,304.00
2022-12-19T08:14:22.271Z,320.00
2022-12-19T08:15:22.247Z,332.00
2022-12-19T08:16:22.442Z,340.00
2022-12-19T08:17:22.516Z,360.00
2022-12-19T08:18:22.606Z,404.00
2022-12-19T08:19:25.992Z,496.00
2022-12-19T08:20:23.244Z,556.00
2022-12-19T08:21:22.213Z,580.00
2022-12-19T08:22:22.218Z,556.00
2022-12-19T08:23:22.199Z,572.00
2022-12-19T08:24:22.267Z,584.00
2022-12-19T08:25:22.303Z,592.00
2022-12-19T08:26:22.189Z,576.00
2022-12-19T08:27:22.181Z,572.00
2022-12-19T08:28:22.177Z,576.00
2022-12-19T08:29:22.152Z,592.00
2022-12-19T08:30:22.185Z,640.00
2022-12-19T08:31:22.195Z,628.00
2022-12-19T08:32:22.254Z,640.00
2022-12-19T08:33:22.141Z,616.00
2022-12-19T08:34:22.542Z,612.00
2022-12-19T08:35:22.161Z,608.00
2022-12-19T08:36:22.144Z,556.00
2022-12-19T08:37:22.093Z,512.00
2022-12-19T08:38:22.118Z,508.00
2022-12-19T08:40:48.496Z,520.00
2022-12-19T08:41:48.495Z,532.00
2022-12-19T08:42:48.493Z,536.00
2022-12-19T08:43:48.478Z,564.00
2022-12-19T08:44:48.453Z,600.00
2022-12-19T08:45:48.483Z,612.00
2022-12-19T08:46:50.482Z,648.00
2022-12-19T08:47:48.693Z,688.00
2022-12-19T08:48:48.437Z,728.00
2022-12-19T08:49:48.435Z,740.00
2022-12-19T08:50:48.408Z,760.00
2022-12-19T08:51:48.448Z,832.00
2022-12-19T08:52:48.904Z,940.00
2022-12-19T08:53:48.403Z,1012.00
2022-12-19T08:54:48.405Z,1128.00
2022-12-19T08:55:48.404Z,1188.00
2022-12-19T08:56:48.384Z,1168.00
2022-12-19T08:57:48.480Z,1348.00
2022-12-19T08:58:48.356Z,1372.00
2022-12-19T08:59:48.388Z,1432.00
2022-12-19T09:00:54.746Z,1424.00
2022-12-19T09:01:49.716Z,1424.00
2022-12-19T09:02:48.561Z,1436.00
2022-12-19T09:04:00.535Z,1456.00
2022-12-19T09:06:03.457Z,1504.00
2022-12-19T09:06:05.159Z,1488.00
2022-12-19T09:06:49.375Z,1532.00
2022-12-19T09:07:48.318Z,1580.00
2022-12-19T09:08:48.295Z,1588.00
2022-12-19T09:09:48.439Z,1564.00
2022-12-19T09:10:48.288Z,1600.00
2022-12-19T09:11:48.501Z,1676.00
2022-12-19T09:12:54.398Z,1768.00
2022-12-19T09:13:49.263Z,1772.00
2022-12-19T09:14:48.300Z,1808.00
2022-12-19T09:15:48.241Z,1780.00
2022-12-19T09:16:48.401Z,1792.00
2022-12-19T09:17:48.268Z,1876.00
2022-12-19T09:18:49.165Z,1932.00
2022-12-19T09:19:48.539Z,2032.00
2022-12-19T09:20:48.200Z,2140.00
2022-12-19T09:21:48.236Z,2248.00
2022-12-19T09:22:48.216Z,2228.00
2022-12-19T09:23:48.195Z,2260.00
2022-12-19T09:24:48.223Z,2312.00
2022-12-19T09:25:48.206Z,2328.00
2022-12-19T09:26:48.174Z,2352.00
2022-12-19T09:28:25.796Z,2356.00
2022-12-19T09:28:49.158Z,2368.00
2022-12-19T09:29:48.155Z,2420.00
2022-12-19T09:30:48.242Z,2464.00
2022-12-19T09:31:48.951Z,2556.00
2022-12-19T09:32:49.117Z,2628.00
2022-12-19T09:33:48.140Z,2696.00
2022-12-19T09:34:48.170Z,2768.00
2022-12-19T09:35:48.231Z,2716.00
2022-12-19T09:36:48.102Z,2696.00
2022-12-19T09:37:48.107Z,2632.00
2022-12-19T09:38:48.184Z,2632.00
2022-12-19T09:39:48.169Z,2732.00
2022-12-19T09:40:48.104Z,2684.00
2022-12-19T09:41:48.063Z,2680.00
2022-12-19T09:43:13.705Z,2564.00
2022-12-19T09:44:23.336Z,2468.00
2022-12-19T09:44:48.037Z,2420.00
2022-12-19T09:45:48.184Z,2420.00
2022-12-19T09:46:49.026Z,2488.00
2022-12-19T09:47:48.068Z,2536.00
2022-12-19T09:48:54.073Z,2604.00
2022-12-19T09:49:49.018Z,2668.00
2022-12-19T09:50:47.984Z,2620.00
2022-12-19T09:51:48.117Z,2636.00
2022-12-19T09:52:47.989Z,2680.00
2022-12-19T09:53:54.408Z,2684.00
2022-12-19T09:54:48.969Z,2740.00
2022-12-19T09:55:48.055Z,2836.00
2022-12-19T09:56:47.942Z,2924.00
2022-12-19T09:57:47.961Z,3028.00
2022-12-19T09:58:47.933Z,3148.00
2022-12-19T09:59:50.229Z,3292.00
2022-12-19T10:00:47.954Z,3372.00
2022-12-19T10:01:49.103Z,3348.00
2022-12-19T10:04:14.317Z,3236.00
2022-12-19T10:05:27.864Z,3204.00
2022-12-19T10:07:11.272Z,3168.00
2022-12-19T10:07:35.428Z,3172.00
2022-12-19T10:08:15.280Z,3196.00
2022-12-19T10:10:01.902Z,3232.00
2022-12-19T10:12:35.913Z,3292.00
2022-12-19T10:12:41.099Z,3276.00
2022-12-19T10:12:45.957Z,3192.00
2022-12-19T10:13:15.254Z,3088.00
2022-12-19T10:14:14.249Z,2992.00
2022-12-19T10:15:14.235Z,2884.00
2022-12-19T10:16:14.311Z,2756.00
2022-12-19T10:17:29.634Z,2656.00
2022-12-19T10:18:15.202Z,2620.00
2022-12-19T10:19:14.226Z,2632.00
2022-12-19T10:20:14.191Z,2640.00
2022-12-19T10:21:14.195Z,2616.00
2022-12-19T10:22:18.919Z,2608.00
2022-12-19T10:23:15.308Z,2644.00
2022-12-19T10:24:14.176Z,2704.00
2022-12-19T10:25:14.203Z,2716.00
2022-12-19T10:26:14.156Z,2696.00
2022-12-19T10:27:14.178Z,2680.00
2022-12-19T10:28:14.152Z,2688.00
2022-12-19T10:29:14.159Z,2692.00
2022-12-19T10:30:14.203Z,2688.00
2022-12-19T10:31:20.998Z,2756.00
2022-12-19T10:32:15.280Z,2876.00
2022-12-19T10:33:24.047Z,3080.00
2022-12-19T10:34:16.998Z,3308.00
2022-12-19T10:35:15.057Z,3444.00
2022-12-19T10:36:14.108Z,3648.00
2022-12-19T10:37:26.851Z,3892.00
2022-12-19T10:38:15.088Z,4044.00
2022-12-19T10:39:14.241Z,3924.00
2022-12-19T10:40:24.351Z,3820.00
2022-12-19T10:41:15.127Z,3608.00
2022-12-19T10:42:14.044Z,3348.00
2022-12-19T10:43:20.465Z,3212.00
2022-12-19T10:44:15.082Z,3016.00
2022-12-19T10:45:14.085Z,2868.00
2022-12-19T10:46:14.203Z,2696.00
2022-12-19T10:47:14.072Z,2484.00
2022-12-19T10:48:14.013Z,2208.00
2022-12-19T10:49:14.023Z,2128.00
2022-12-19T10:50:14.003Z,2040.00
2022-12-19T10:51:13.989Z,1992.00
2022-12-19T10:52:14.008Z,2004.00
2022-12-19T10:53:13.991Z,2012.00
2022-12-19T10:54:13.980Z,2068.00
2022-12-19T10:55:14.094Z,2124.00
2022-12-19T10:56:14.067Z,2148.00
2022-12-19T10:57:13.959Z,2204.00
2022-12-19T10:58:13.944Z,2240.00
2022-12-19T10:59:13.937Z,2180.00
2022-12-19T11:00:13.950Z,2248.00
2022-12-19T11:01:13.942Z,2232.00
2022-12-19T11:02:14.110Z,2232.00
2022-12-19T11:03:14.123Z,2184.00
2022-12-19T11:04:14.982Z,2164.00
2022-12-19T11:05:14.042Z,2144.00
2022-12-19T11:06:13.907Z,2128.00
2022-12-19T11:07:14.079Z,2088.00
2022-12-19T11:08:13.896Z,2064.00
2022-12-19T11:09:13.885Z,2068.00
2022-12-19T11:12:14.716Z,2096.00
2022-12-19T11:13:20.132Z,2140.00
2022-12-19T11:15:51.858Z,2128.00
2022-12-19T11:17:48.481Z,2140.00
2022-12-19T11:18:38.528Z,2152.00
2022-12-19T11:20:24.361Z,2168.00
2022-12-19T11:20:48.420Z,2152.00
2022-12-19T11:25:38.158Z,2224.00
2022-12-19T11:27:03.923Z,2196.00
2022-12-19T11:29:19.697Z,2448.00
2022-12-19T11:29:26.119Z,2264.00
2022-12-19T11:29:32.462Z,2756.00
2022-12-19T11:29:36.813Z,2340.00
2022-12-19T11:29:54.652Z,2840.00
2022-12-19T11:30:39.205Z,2776.00
2022-12-19T11:30:43.170Z,2836.00
2022-12-19T11:31:52.920Z,2500.00
2022-12-19T11:32:20.579Z,2408.00
2022-12-19T11:33:20.278Z,2344.00
2022-12-19T11:34:19.035Z,2348.00
2022-12-19T11:35:19.505Z,2384.00
2022-12-19T11:36:19.040Z,2436.00
2022-12-19T11:37:19.007Z,2476.00
2022-12-19T11:38:19.008Z,2492.00
2022-12-19T11:39:18.997Z,2512.00
2022-12-19T11:40:18.988Z,2536.00
2022-12-19T11:41:19.040Z,2612.00
2022-12-19T11:42:19.106Z,2732.00
2022-12-19T11:43:43.749Z,2844.00
2022-12-19T11:44:19.952Z,2908.00
2022-12-19T11:45:18.961Z,2876.00
2022-12-19T11:46:22.152Z,2824.00
2022-12-19T11:47:19.000Z,2836.00
2022-12-19T11:48:18.951Z,2944.00
2022-12-19T11:49:18.926Z,3132.00
2022-12-19T11:50:19.356Z,3344.00
2022-12-19T11:51:18.910Z,3484.00
2022-12-19T11:53:01.814Z,3592.00
2022-12-19T11:53:20.033Z,3656.00
2022-12-19T11:54:18.921Z,3628.00
2022-12-19T11:55:18.914Z,3568.00
2022-12-19T11:56:18.889Z,3480.00
2022-12-19T11:57:19.262Z,3260.00
2022-12-19T11:58:19.029Z,2908.00
2022-12-19T11:59:18.901Z,2736.00
2022-12-19T12:00:18.856Z,2684.00
2022-12-19T12:01:18.917Z,2628.00
2022-12-19T12:02:18.848Z,2536.00
2022-12-19T12:03:18.926Z,2432.00
2022-12-19T12:04:18.953Z,2348.00
2022-12-19T12:05:18.831Z,2288.00
2022-12-19T12:06:18.835Z,2236.00
2022-12-19T12:07:55.397Z,2172.00
2022-12-19T12:10:32.003Z,2116.00
2022-12-19T12:12:58.417Z,2072.00
2022-12-19T12:15:43.103Z,2036.00
2022-12-19T12:19:58.780Z,2020.00
2022-12-19T12:21:02.798Z,2024.00
2022-12-19T12:21:31.537Z,2028.00
2022-12-19T12:23:46.518Z,2036.00
2022-12-19T12:27:25.852Z,2028.00
2022-12-19T12:28:27.400Z,2024.00
2022-12-19T12:31:02.598Z,1992.00
2022-12-19T12:31:07.949Z,2004.00
2022-12-19T12:31:14.478Z,1984.00
2022-12-19T12:31:18.281Z,2024.00
2022-12-19T12:31:22.106Z,2024.00
2022-12-19T12:31:23.332Z,2020.00
2022-12-19T12:31:31.686Z,1992.00
2022-12-19T12:31:39.615Z,2076.00
2022-12-19T12:31:39.615Z,2060.00
2022-12-19T12:31:57.407Z,2024.00
2022-12-19T12:31:58.099Z,2072.00
2022-12-19T12:32:04.349Z,2044.00
2022-12-19T12:32:04.670Z,2028.00
2022-12-19T12:32:05.403Z,2088.00
2022-12-19T12:35:34.426Z,2140.00
2022-12-19T12:35:42.372Z,2448.00
2022-12-19T12:36:00.037Z,2296.00
2022-12-19T12:37:49.473Z,2696.00
2022-12-19T12:38:14.197Z,2784.00
2022-12-19T12:38:24.468Z,2900.00
2022-12-19T12:39:25.506Z,2952.00
2022-12-19T12:40:19.568Z,3028.00
2022-12-19T12:41:18.571Z,3096.00
2022-12-19T12:42:18.545Z,3180.00
2022-12-19T12:43:18.572Z,3160.00
2022-12-19T12:44:18.531Z,3044.00
2022-12-19T12:45:19.526Z,2908.00
2022-12-19T12:46:18.585Z,2872.00
2022-12-19T12:48:45.180Z,3044.00
2022-12-19T12:49:45.927Z,3088.00
2022-12-19T12:50:48.560Z,3128.00
2022-12-19T12:51:45.911Z,3168.00
2022-12-19T12:52:44.919Z,3148.00
2022-12-19T12:53:44.919Z,3112.00
2022-12-19T12:54:44.909Z,3144.00
2022-12-19T12:55:44.908Z,3152.00
2022-12-19T12:56:44.888Z,3132.00
2022-12-19T12:57:44.884Z,3112.00
2022-12-19T12:58:44.898Z,3076.00
2022-12-19T12:59:44.859Z,3016.00
2022-12-19T13:00:44.843Z,2888.00
2022-12-19T13:01:45.020Z,2752.00
2022-12-19T13:02:45.019Z,2624.00
2022-12-19T13:03:44.859Z,2492.00